sensor_id;sensor_type;location;lat;lon;timestamp;pressure;altitude;pressure_sealevel;temperature;humidity
6514;BME280;3290;47.716;9.070;2023-01-26T00:00:49;97398.38;;;3.46;92.66
6514;BME280;3290;47.716;9.070;2023-01-26T00:03:15;97396.13;;;3.43;92.82
6514;BME280;3290;47.716;9.070;2023-01-26T00:05:41;97391.09;;;3.42;92.62
6514;BME280;3290;47.716;9.070;2023-01-26T00:08:07;97391.41;;;3.39;92.53
6514;BME280;3290;47.716;9.070;2023-01-26T00:10:37;97385.91;;;3.34;93.13
6514;BME280;3290;47.716;9.070;2023-01-26T00:13:03;97382.97;;;3.29;94.28
6514;BME280;3290;47.716;9.070;2023-01-26T00:15:28;97375.88;;;3.39;94.00
6514;BME280;3290;47.716;9.070;2023-01-26T00:17:55;97377.50;;;3.40;92.70
6514;BME280;3290;47.716;9.070;2023-01-26T00:20:21;97377.97;;;3.35;93.46
6514;BME280;3290;47.716;9.070;2023-01-26T00:22:46;97377.13;;;3.19;93.67
6514;BME280;3290;47.716;9.070;2023-01-26T00:25:11;97376.88;;;3.38;93.10
6514;BME280;3290;47.716;9.070;2023-01-26T00:27:37;97380.91;;;3.40;92.10
6514;BME280;3290;47.716;9.070;2023-01-26T00:30:02;97376.50;;;3.17;92.62
6514;BME280;3290;47.716;9.070;2023-01-26T00:32:28;97381.38;;;3.36;92.59
6514;BME280;3290;47.716;9.070;2023-01-26T00:34:53;97381.72;;;3.49;91.19
6514;BME280;3290;47.716;9.070;2023-01-26T00:37:19;97370.06;;;3.37;92.81
6514;BME280;3290;47.716;9.070;2023-01-26T00:39:44;97374.50;;;3.11;93.01
6514;BME280;3290;47.716;9.070;2023-01-26T00:42:10;97378.94;;;3.18;92.67
6514;BME280;3290;47.716;9.070;2023-01-26T00:44:38;97372.31;;;3.24;91.93
6514;BME280;3290;47.716;9.070;2023-01-26T00:47:05;97378.44;;;3.15;92.96
6514;BME280;3290;47.716;9.070;2023-01-26T00:49:31;97380.91;;;3.40;91.98
6514;BME280;3290;47.716;9.070;2023-01-26T00:51:56;97367.91;;;3.17;92.75
6514;BME280;3290;47.716;9.070;2023-01-26T00:54:22;97367.47;;;3.37;92.01
6514;BME280;3290;47.716;9.070;2023-01-26T00:56:47;97364.56;;;3.48;90.95
6514;BME280;3290;47.716;9.070;2023-01-26T00:59:12;97366.16;;;3.33;91.84
6514;BME280;3290;47.716;9.070;2023-01-26T01:01:38;97359.81;;;3.19;92.34
6514;BME280;3290;47.716;9.070;2023-01-26T01:04:03;97361.81;;;2.77;94.09
6514;BME280;3290;47.716;9.070;2023-01-26T01:06:29;97364.75;;;2.89;92.59
6514;BME280;3290;47.716;9.070;2023-01-26T01:08:54;97355.75;;;3.09;91.57
6514;BME280;3290;47.716;9.070;2023-01-26T01:11:19;97360.63;;;3.20;91.82
6514;BME280;3290;47.716;9.070;2023-01-26T01:13:45;97358.03;;;3.12;91.26
6514;BME280;3290;47.716;9.070;2023-01-26T01:16:12;97368.09;;;3.23;91.91
6514;BME280;3290;47.716;9.070;2023-01-26T01:18:38;97370.69;;;3.39;90.70
6514;BME280;3290;47.716;9.070;2023-01-26T01:21:09;97363.59;;;3.33;91.18
6514;BME280;3290;47.716;9.070;2023-01-26T01:23:35;97365.53;;;3.55;89.88
6514;BME280;3290;47.716;9.070;2023-01-26T01:26:02;97362.94;;;3.39;90.09
6514;BME280;3290;47.716;9.070;2023-01-26T01:28:28;97353.56;;;3.38;89.89
6514;BME280;3290;47.716;9.070;2023-01-26T01:30:54;97351.78;;;3.46;89.85
6514;BME280;3290;47.716;9.070;2023-01-26T01:33:21;97350.00;;;3.39;90.11
6514;BME280;3290;47.716;9.070;2023-01-26T01:35:57;97348.88;;;3.41;90.91
6514;BME280;3290;47.716;9.070;2023-01-26T01:38:24;97351.13;;;3.44;89.66
6514;BME280;3290;47.716;9.070;2023-01-26T01:40:50;97337.38;;;3.44;89.64
6514;BME280;3290;47.716;9.070;2023-01-26T01:43:15;97344.84;;;3.47;90.55
6514;BME280;3290;47.716;9.070;2023-01-26T01:45:46;97349.69;;;3.42;90.92
6514;BME280;3290;47.716;9.070;2023-01-26T01:51:16;97346.09;;;3.35;91.56
6514;BME280;3290;47.716;9.070;2023-01-26T01:53:46;97338.53;;;3.41;90.93
6514;BME280;3290;47.716;9.070;2023-01-26T01:56:20;97336.09;;;3.40;91.43
6514;BME280;3290;47.716;9.070;2023-01-26T01:58:51;97340.28;;;3.33;90.95
6514;BME280;3290;47.716;9.070;2023-01-26T02:01:17;97332.34;;;3.42;90.13
6514;BME280;3290;47.716;9.070;2023-01-26T02:03:44;97333.97;;;3.35;89.69
6514;BME280;3290;47.716;9.070;2023-01-26T02:06:35;97341.06;;;3.25;90.72
6514;BME280;3290;47.716;9.070;2023-01-26T02:09:02;97334.09;;;3.10;90.56
6514;BME280;3290;47.716;9.070;2023-01-26T02:11:36;97337.63;;;3.09;90.44
6514;BME280;3290;47.716;9.070;2023-01-26T02:14:05;97326.53;;;3.40;90.59
6514;BME280;3290;47.716;9.070;2023-01-26T02:16:33;97328.97;;;3.58;89.04
6514;BME280;3290;47.716;9.070;2023-01-26T02:18:58;97331.06;;;3.38;89.69
6514;BME280;3290;47.716;9.070;2023-01-26T02:21:24;97323.59;;;3.35;90.70
6514;BME280;3290;47.716;9.070;2023-01-26T02:24:11;97321.50;;;3.31;90.76
6514;BME280;3290;47.716;9.070;2023-01-26T02:26:39;97324.09;;;3.23;89.71
6514;BME280;3290;47.716;9.070;2023-01-26T02:29:07;97314.88;;;3.20;90.16
6514;BME280;3290;47.716;9.070;2023-01-26T02:31:33;97312.25;;;3.13;91.03
6514;BME280;3290;47.716;9.070;2023-01-26T02:33:59;97307.38;;;3.10;91.53
6514;BME280;3290;47.716;9.070;2023-01-26T02:36:27;97311.66;;;3.34;90.89
6514;BME280;3290;47.716;9.070;2023-01-26T02:41:33;97305.63;;;3.10;92.21
6514;BME280;3290;47.716;9.070;2023-01-26T02:44:17;97309.22;;;3.33;91.69
6514;BME280;3290;47.716;9.070;2023-01-26T02:46:43;97304.66;;;3.27;92.58
6514;BME280;3290;47.716;9.070;2023-01-26T02:49:08;97303.06;;;3.26;92.29
6514;BME280;3290;47.716;9.070;2023-01-26T02:51:52;97297.22;;;3.16;93.53
6514;BME280;3290;47.716;9.070;2023-01-26T02:54:18;97293.81;;;3.16;93.69
6514;BME280;3290;47.716;9.070;2023-01-26T02:57:02;97292.72;;;3.26;92.77
6514;BME280;3290;47.716;9.070;2023-01-26T02:59:27;97286.88;;;3.24;93.08
6514;BME280;3290;47.716;9.070;2023-01-26T03:01:54;97285.25;;;3.23;93.38
6514;BME280;3290;47.716;9.070;2023-01-26T03:04:20;97280.69;;;3.09;93.86
6514;BME280;3290;47.716;9.070;2023-01-26T03:06:45;97282.03;;;3.21;93.46
6514;BME280;3290;47.716;9.070;2023-01-26T03:09:10;97287.78;;;2.91;95.18
6514;BME280;3290;47.716;9.070;2023-01-26T03:11:36;97281.63;;;2.84;94.93
6514;BME280;3290;47.716;9.070;2023-01-26T03:14:11;97272.28;;;2.91;94.68
6514;BME280;3290;47.716;9.070;2023-01-26T03:16:37;97272.09;;;2.85;95.09
6514;BME280;3290;47.716;9.070;2023-01-26T03:19:04;97268.38;;;2.95;94.05
6514;BME280;3290;47.716;9.070;2023-01-26T03:21:29;97263.72;;;2.99;93.67
6514;BME280;3290;47.716;9.070;2023-01-26T03:24:14;97264.53;;;3.23;92.80
6514;BME280;3290;47.716;9.070;2023-01-26T03:26:58;97261.94;;;3.07;93.67
6514;BME280;3290;47.716;9.070;2023-01-26T03:29:42;97263.56;;;3.08;92.89
6514;BME280;3290;47.716;9.070;2023-01-26T03:32:08;97264.69;;;3.06;93.58
6514;BME280;3290;47.716;9.070;2023-01-26T03:34:34;97260.97;;;3.16;93.48
6514;BME280;3290;47.716;9.070;2023-01-26T03:37:00;97249.81;;;3.16;92.39
6514;BME280;3290;47.716;9.070;2023-01-26T03:39:25;97245.63;;;3.22;92.51
6514;BME280;3290;47.716;9.070;2023-01-26T03:42:08;97245.75;;;2.97;92.98
6514;BME280;3290;47.716;9.070;2023-01-26T03:44:52;97243.47;;;2.78;94.50
6514;BME280;3290;47.716;9.070;2023-01-26T03:47:37;97238.97;;;3.04;93.92
6514;BME280;3290;47.716;9.070;2023-01-26T03:50:21;97240.28;;;3.08;93.22
6514;BME280;3290;47.716;9.070;2023-01-26T03:53:16;97237.03;;;3.06;92.67
6514;BME280;3290;47.716;9.070;2023-01-26T03:56:00;97235.75;;;3.18;92.10
6514;BME280;3290;47.716;9.070;2023-01-26T03:58:46;97237.00;;;2.90;92.87
6514;BME280;3290;47.716;9.070;2023-01-26T04:01:12;97240.59;;;3.13;91.92
6514;BME280;3290;47.716;9.070;2023-01-26T04:03:57;97241.41;;;3.21;91.21
6514;BME280;3290;47.716;9.070;2023-01-26T04:06:43;97248.34;;;3.13;91.63
6514;BME280;3290;47.716;9.070;2023-01-26T04:09:28;97242.84;;;3.00;92.24
6514;BME280;3290;47.716;9.070;2023-01-26T04:11:53;97231.84;;;2.98;92.31
6514;BME280;3290;47.716;9.070;2023-01-26T04:14:19;97244.47;;;3.01;92.52
6514;BME280;3290;47.716;9.070;2023-01-26T04:17:03;97244.13;;;3.04;91.47
6514;BME280;3290;47.716;9.070;2023-01-26T04:19:48;97239.31;;;3.01;91.79
6514;BME280;3290;47.716;9.070;2023-01-26T04:22:39;97238.34;;;3.18;91.06
6514;BME280;3290;47.716;9.070;2023-01-26T04:25:11;97235.56;;;3.04;92.11
6514;BME280;3290;47.716;9.070;2023-01-26T04:27:37;97223.63;;;3.18;90.94
6514;BME280;3290;47.716;9.070;2023-01-26T04:30:03;97228.47;;;3.14;91.04
6514;BME280;3290;47.716;9.070;2023-01-26T04:32:29;97230.22;;;3.13;91.12
6514;BME280;3290;47.716;9.070;2023-01-26T04:34:54;97227.66;;;3.13;90.80
6514;BME280;3290;47.716;9.070;2023-01-26T04:37:20;97211.66;;;3.02;91.39
6514;BME280;3290;47.716;9.070;2023-01-26T04:39:46;97211.00;;;3.16;90.97
6514;BME280;3290;47.716;9.070;2023-01-26T04:42:11;97220.22;;;3.18;91.13
6514;BME280;3290;47.716;9.070;2023-01-26T04:44:40;97215.06;;;3.10;91.29
6514;BME280;3290;47.716;9.070;2023-01-26T04:47:05;97210.19;;;3.07;91.65
6514;BME280;3290;47.716;9.070;2023-01-26T04:49:31;97207.59;;;3.07;91.31
6514;BME280;3290;47.716;9.070;2023-01-26T04:51:56;97209.53;;;3.13;91.28
6514;BME280;3290;47.716;9.070;2023-01-26T04:54:21;97198.22;;;3.06;90.95
6514;BME280;3290;47.716;9.070;2023-01-26T04:56:47;97200.00;;;3.14;90.79
6514;BME280;3290;47.716;9.070;2023-01-26T04:59:12;97195.31;;;3.09;91.22
6514;BME280;3290;47.716;9.070;2023-01-26T05:01:38;97200.50;;;3.01;90.96
6514;BME280;3290;47.716;9.070;2023-01-26T05:04:04;97197.88;;;3.25;90.59
6514;BME280;3290;47.716;9.070;2023-01-26T05:06:30;97193.38;;;3.11;90.00
6514;BME280;3290;47.716;9.070;2023-01-26T05:08:56;97197.56;;;2.80;91.20
6514;BME280;3290;47.716;9.070;2023-01-26T05:11:21;97198.69;;;2.94;91.41
6514;BME280;3290;47.716;9.070;2023-01-26T05:13:47;97196.44;;;2.99;90.91
6514;BME280;3290;47.716;9.070;2023-01-26T05:16:13;97196.13;;;3.02;91.60
6514;BME280;3290;47.716;9.070;2023-01-26T05:18:40;97197.91;;;3.09;90.91
6514;BME280;3290;47.716;9.070;2023-01-26T05:21:06;97198.56;;;3.03;90.86
6514;BME280;3290;47.716;9.070;2023-01-26T05:23:31;97201.13;;;3.03;91.21
6514;BME280;3290;47.716;9.070;2023-01-26T05:25:56;97201.44;;;3.00;91.07
6514;BME280;3290;47.716;9.070;2023-01-26T05:28:22;97190.44;;;2.90;91.90
6514;BME280;3290;47.716;9.070;2023-01-26T05:30:47;97190.16;;;3.01;91.66
6514;BME280;3290;47.716;9.070;2023-01-26T05:33:13;97193.03;;;3.06;91.09
6514;BME280;3290;47.716;9.070;2023-01-26T05:35:39;97198.06;;;3.08;90.83
6514;BME280;3290;47.716;9.070;2023-01-26T05:38:04;97191.59;;;3.12;90.92
6514;BME280;3290;47.716;9.070;2023-01-26T05:40:29;97196.28;;;3.00;90.86
6514;BME280;3290;47.716;9.070;2023-01-26T05:42:55;97183.66;;;2.97;91.49
6514;BME280;3290;47.716;9.070;2023-01-26T05:45:20;97190.63;;;2.89;90.97
6514;BME280;3290;47.716;9.070;2023-01-26T05:47:46;97190.44;;;2.82;91.40
6514;BME280;3290;47.716;9.070;2023-01-26T05:50:13;97194.66;;;2.76;91.95
6514;BME280;3290;47.716;9.070;2023-01-26T05:52:39;97193.88;;;2.91;90.46
6514;BME280;3290;47.716;9.070;2023-01-26T05:55:05;97194.00;;;2.97;90.17
6514;BME280;3290;47.716;9.070;2023-01-26T05:57:31;97203.38;;;2.90;90.83
6514;BME280;3290;47.716;9.070;2023-01-26T05:59:56;97209.22;;;2.92;90.71
6514;BME280;3290;47.716;9.070;2023-01-26T06:02:22;97208.25;;;2.93;91.41
6514;BME280;3290;47.716;9.070;2023-01-26T06:04:47;97211.00;;;2.84;91.16
6514;BME280;3290;47.716;9.070;2023-01-26T06:07:13;97206.63;;;2.77;91.11
6514;BME280;3290;47.716;9.070;2023-01-26T06:09:39;97217.63;;;2.78;91.57
6514;BME280;3290;47.716;9.070;2023-01-26T06:12:06;97207.63;;;2.99;90.56
6514;BME280;3290;47.716;9.070;2023-01-26T06:14:31;97219.25;;;2.87;91.28
6514;BME280;3290;47.716;9.070;2023-01-26T06:16:57;97213.91;;;2.89;91.68
6514;BME280;3290;47.716;9.070;2023-01-26T06:19:22;97215.66;;;2.88;91.04
6514;BME280;3290;47.716;9.070;2023-01-26T06:21:47;97224.44;;;3.03;91.08
6514;BME280;3290;47.716;9.070;2023-01-26T06:24:13;97217.63;;;2.94;90.88
6514;BME280;3290;47.716;9.070;2023-01-26T06:26:38;97220.88;;;3.12;90.27
6514;BME280;3290;47.716;9.070;2023-01-26T06:29:04;97224.41;;;2.87;90.89
6514;BME280;3290;47.716;9.070;2023-01-26T06:31:30;97230.09;;;3.07;90.71
6514;BME280;3290;47.716;9.070;2023-01-26T06:33:55;97219.56;;;2.77;91.41
6514;BME280;3290;47.716;9.070;2023-01-26T06:36:20;97225.00;;;2.66;91.27
6514;BME280;3290;47.716;9.070;2023-01-26T06:38:47;97225.03;;;2.81;90.35
6514;BME280;3290;47.716;9.070;2023-01-26T06:41:14;97223.75;;;2.70;89.97
6514;BME280;3290;47.716;9.070;2023-01-26T06:43:46;97222.25;;;2.59;90.35
6514;BME280;3290;47.716;9.070;2023-01-26T06:46:12;97224.53;;;2.78;89.12
6514;BME280;3290;47.716;9.070;2023-01-26T06:48:38;97214.38;;;2.84;88.85
6514;BME280;3290;47.716;9.070;2023-01-26T06:51:43;97211.97;;;3.07;88.27
6514;BME280;3290;47.716;9.070;2023-01-26T06:54:10;97214.03;;;2.79;89.54
6514;BME280;3290;47.716;9.070;2023-01-26T06:56:36;97205.31;;;2.88;87.83
6514;BME280;3290;47.716;9.070;2023-01-26T06:59:02;97208.88;;;3.11;87.16
6514;BME280;3290;47.716;9.070;2023-01-26T07:01:32;97217.47;;;2.96;87.57
6514;BME280;3290;47.716;9.070;2023-01-26T07:03:58;97214.41;;;2.92;87.24
6514;BME280;3290;47.716;9.070;2023-01-26T07:06:24;97209.22;;;3.08;87.75
6514;BME280;3290;47.716;9.070;2023-01-26T07:08:49;97202.44;;;2.99;87.84
6514;BME280;3290;47.716;9.070;2023-01-26T07:11:15;97210.81;;;2.78;88.09
6514;BME280;3290;47.716;9.070;2023-01-26T07:13:41;97207.94;;;2.96;88.88
6514;BME280;3290;47.716;9.070;2023-01-26T07:16:09;97217.47;;;2.80;88.74
6514;BME280;3290;47.716;9.070;2023-01-26T07:18:36;97204.69;;;2.78;88.34
6514;BME280;3290;47.716;9.070;2023-01-26T07:21:19;97201.94;;;2.96;87.19
6514;BME280;3290;47.716;9.070;2023-01-26T07:23:47;97213.22;;;2.87;87.82
6514;BME280;3290;47.716;9.070;2023-01-26T07:26:13;97213.09;;;2.96;87.53
6514;BME280;3290;47.716;9.070;2023-01-26T07:28:38;97210.00;;;3.01;87.41
6514;BME280;3290;47.716;9.070;2023-01-26T07:31:05;97216.34;;;2.98;87.63
6514;BME280;3290;47.716;9.070;2023-01-26T07:33:32;97218.91;;;2.90;88.02
6514;BME280;3290;47.716;9.070;2023-01-26T07:35:58;97222.47;;;2.89;88.18
6514;BME280;3290;47.716;9.070;2023-01-26T07:38:25;97214.69;;;2.97;87.44
6514;BME280;3290;47.716;9.070;2023-01-26T07:40:51;97217.94;;;2.91;87.74
6514;BME280;3290;47.716;9.070;2023-01-26T07:43:16;97218.28;;;2.96;87.64
6514;BME280;3290;47.716;9.070;2023-01-26T07:45:44;97209.38;;;2.99;87.36
6514;BME280;3290;47.716;9.070;2023-01-26T07:48:10;97207.91;;;3.04;87.54
6514;BME280;3290;47.716;9.070;2023-01-26T07:50:35;97204.69;;;2.94;87.73
6514;BME280;3290;47.716;9.070;2023-01-26T07:53:01;97204.69;;;2.86;89.38
6514;BME280;3290;47.716;9.070;2023-01-26T07:55:26;97201.78;;;3.21;88.93
6514;BME280;3290;47.716;9.070;2023-01-26T07:57:52;97204.69;;;3.18;90.77
6514;BME280;3290;47.716;9.070;2023-01-26T08:00:18;97208.91;;;3.19;88.04
6514;BME280;3290;47.716;9.070;2023-01-26T08:02:43;97197.56;;;2.96;88.57
6514;BME280;3290;47.716;9.070;2023-01-26T08:05:09;97195.81;;;3.05;88.10
6514;BME280;3290;47.716;9.070;2023-01-26T08:07:34;97212.78;;;3.15;88.02
6514;BME280;3290;47.716;9.070;2023-01-26T08:09:59;97215.38;;;3.23;87.61
6514;BME280;3290;47.716;9.070;2023-01-26T08:12:25;97211.16;;;2.98;87.67
6514;BME280;3290;47.716;9.070;2023-01-26T08:14:51;97200.97;;;3.28;86.62
6514;BME280;3290;47.716;9.070;2023-01-26T08:17:17;97208.41;;;3.08;88.05
6514;BME280;3290;47.716;9.070;2023-01-26T08:19:44;97209.84;;;3.18;87.10
6514;BME280;3290;47.716;9.070;2023-01-26T08:22:09;97215.03;;;3.18;87.37
6514;BME280;3290;47.716;9.070;2023-01-26T08:24:34;97206.00;;;3.22;86.52
6514;BME280;3290;47.716;9.070;2023-01-26T08:27:00;97204.69;;;3.18;85.85
6514;BME280;3290;47.716;9.070;2023-01-26T08:29:25;97203.88;;;3.25;86.21
6514;BME280;3290;47.716;9.070;2023-01-26T08:31:51;97196.91;;;3.34;86.39
6514;BME280;3290;47.716;9.070;2023-01-26T08:34:16;97207.25;;;3.34;85.88
6514;BME280;3290;47.716;9.070;2023-01-26T08:36:42;97203.41;;;3.38;86.04
6514;BME280;3290;47.716;9.070;2023-01-26T08:39:07;97212.31;;;3.27;85.72
6514;BME280;3290;47.716;9.070;2023-01-26T08:41:32;97197.91;;;3.09;86.07
6514;BME280;3290;47.716;9.070;2023-01-26T08:43:58;97197.28;;;3.15;85.47
6514;BME280;3290;47.716;9.070;2023-01-26T08:46:24;97192.09;;;3.15;85.54
6514;BME280;3290;47.716;9.070;2023-01-26T08:48:50;97192.22;;;3.06;85.95
6514;BME280;3290;47.716;9.070;2023-01-26T08:51:15;97191.59;;;3.04;85.69
6514;BME280;3290;47.716;9.070;2023-01-26T08:53:41;97190.94;;;3.10;85.40
6514;BME280;3290;47.716;9.070;2023-01-26T08:56:08;97201.44;;;3.00;85.66
6514;BME280;3290;47.716;9.070;2023-01-26T08:58:34;97202.09;;;3.02;85.51
6514;BME280;3290;47.716;9.070;2023-01-26T09:01:09;97197.25;;;2.99;85.37
6514;BME280;3290;47.716;9.070;2023-01-26T09:03:35;97198.88;;;3.00;85.01
6514;BME280;3290;47.716;9.070;2023-01-26T09:06:02;97194.81;;;2.90;85.05
6514;BME280;3290;47.716;9.070;2023-01-26T09:08:28;97193.03;;;2.82;85.40
6514;BME280;3290;47.716;9.070;2023-01-26T09:10:54;97189.81;;;2.96;84.46
6514;BME280;3290;47.716;9.070;2023-01-26T09:13:20;97193.38;;;3.03;84.61
6514;BME280;3290;47.716;9.070;2023-01-26T09:15:45;97189.16;;;3.18;83.72
6514;BME280;3290;47.716;9.070;2023-01-26T09:18:11;97190.13;;;2.85;84.96
6514;BME280;3290;47.716;9.070;2023-01-26T09:20:37;97194.34;;;3.10;83.62
6514;BME280;3290;47.716;9.070;2023-01-26T09:23:02;97194.19;;;3.04;84.06
6514;BME280;3290;47.716;9.070;2023-01-26T09:25:28;97204.69;;;3.10;84.23
6514;BME280;3290;47.716;9.070;2023-01-26T09:27:53;97201.47;;;2.92;84.22
6514;BME280;3290;47.716;9.070;2023-01-26T09:30:19;97201.13;;;3.11;84.20
6514;BME280;3290;47.716;9.070;2023-01-26T09:32:44;97200.50;;;3.33;83.30
6514;BME280;3290;47.716;9.070;2023-01-26T09:35:09;97199.16;;;3.45;83.11
6514;BME280;3290;47.716;9.070;2023-01-26T09:37:36;97193.06;;;3.22;83.94
6514;BME280;3290;47.716;9.070;2023-01-26T09:40:03;97202.25;;;3.32;83.89
6514;BME280;3290;47.716;9.070;2023-01-26T09:42:45;97195.78;;;3.36;83.25
6514;BME280;3290;47.716;9.070;2023-01-26T09:45:16;97194.16;;;3.35;82.82
6514;BME280;3290;47.716;9.070;2023-01-26T09:48:11;97184.47;;;3.29;82.90
6514;BME280;3290;47.716;9.070;2023-01-26T09:50:45;97185.41;;;3.52;82.41
6514;BME280;3290;47.716;9.070;2023-01-26T09:56:04;97186.75;;;3.24;82.37
6514;BME280;3290;47.716;9.070;2023-01-26T09:58:34;97190.09;;;3.41;82.28
6514;BME280;3290;47.716;9.070;2023-01-26T10:01:02;97188.69;;;3.22;82.44
6514;BME280;3290;47.716;9.070;2023-01-26T10:08:46;97200.81;;;3.22;82.31
6514;BME280;3290;47.716;9.070;2023-01-26T10:11:29;97189.31;;;3.17;82.50
6514;BME280;3290;47.716;9.070;2023-01-26T10:14:02;97188.53;;;3.08;82.52
6514;BME280;3290;47.716;9.070;2023-01-26T10:16:32;97189.31;;;3.40;82.02
6514;BME280;3290;47.716;9.070;2023-01-26T10:19:11;97192.22;;;3.37;81.45
6514;BME280;3290;47.716;9.070;2023-01-26T10:21:43;97176.16;;;3.50;81.41
6514;BME280;3290;47.716;9.070;2023-01-26T10:24:11;97172.47;;;3.44;81.46
6514;BME280;3290;47.716;9.070;2023-01-26T10:26:38;97171.66;;;3.44;80.67
6514;BME280;3290;47.716;9.070;2023-01-26T10:29:03;97173.59;;;3.50;80.66
6514;BME280;3290;47.716;9.070;2023-01-26T10:31:31;97182.81;;;3.52;80.94
6514;BME280;3290;47.716;9.070;2023-01-26T10:33:59;97185.91;;;3.40;80.57
6514;BME280;3290;47.716;9.070;2023-01-26T10:36:30;97173.63;;;3.42;81.58
6514;BME280;3290;47.716;9.070;2023-01-26T10:39:04;97168.13;;;3.21;81.98
6514;BME280;3290;47.716;9.070;2023-01-26T10:41:30;97167.16;;;3.38;81.37
6514;BME280;3290;47.716;9.070;2023-01-26T10:43:59;97165.50;;;3.45;81.85
6514;BME280;3290;47.716;9.070;2023-01-26T10:51:38;97163.22;;;3.50;81.17
6514;BME280;3290;47.716;9.070;2023-01-26T10:54:24;97163.03;;;3.67;80.90
6514;BME280;3290;47.716;9.070;2023-01-26T10:56:58;97172.31;;;3.54;81.59
6514;BME280;3290;47.716;9.070;2023-01-26T10:59:37;97167.13;;;3.54;81.05
6514;BME280;3290;47.716;9.070;2023-01-26T11:04:36;97174.66;;;3.71;80.62
6514;BME280;3290;47.716;9.070;2023-01-26T11:07:23;97169.00;;;3.75;80.01
6514;BME280;3290;47.716;9.070;2023-01-26T11:09:49;97170.47;;;3.62;80.44
6514;BME280;3290;47.716;9.070;2023-01-26T11:12:20;97175.50;;;3.71;80.13
6514;BME280;3290;47.716;9.070;2023-01-26T11:17:25;97171.63;;;3.59;80.88
6514;BME280;3290;47.716;9.070;2023-01-26T11:20:04;97172.09;;;3.63;80.98
6514;BME280;3290;47.716;9.070;2023-01-26T11:25:27;97167.91;;;3.54;81.33
6514;BME280;3290;47.716;9.070;2023-01-26T11:33:52;97167.63;;;3.25;82.74
6514;BME280;3290;47.716;9.070;2023-01-26T11:40:01;97166.28;;;3.53;81.76
6514;BME280;3290;47.716;9.070;2023-01-26T11:45:36;97158.59;;;3.21;82.25
6514;BME280;3290;47.716;9.070;2023-01-26T11:53:57;97159.88;;;3.25;83.17
6514;BME280;3290;47.716;9.070;2023-01-26T12:02:02;97147.38;;;3.45;82.17
6514;BME280;3290;47.716;9.070;2023-01-26T12:04:30;97143.50;;;3.41;81.73
6514;BME280;3290;47.716;9.070;2023-01-26T12:07:02;97141.59;;;3.35;82.48
6514;BME280;3290;47.716;9.070;2023-01-26T12:09:35;97135.56;;;3.50;82.55
6514;BME280;3290;47.716;9.070;2023-01-26T12:14:50;97127.69;;;3.28;83.04
6514;BME280;3290;47.716;9.070;2023-01-26T12:17:29;97131.41;;;3.79;86.39
6514;BME280;3290;47.716;9.070;2023-01-26T12:20:28;97119.50;;;3.62;82.84
6514;BME280;3290;47.716;9.070;2023-01-26T12:25:35;97122.63;;;3.50;82.47
6514;BME280;3290;47.716;9.070;2023-01-26T12:28:18;97118.28;;;3.35;83.40
6514;BME280;3290;47.716;9.070;2023-01-26T12:31:12;97119.13;;;3.27;83.33
6514;BME280;3290;47.716;9.070;2023-01-26T12:33:40;97115.38;;;3.38;83.07
6514;BME280;3290;47.716;9.070;2023-01-26T12:41:52;97117.56;;;3.57;82.54
6514;BME280;3290;47.716;9.070;2023-01-26T12:46:59;97117.28;;;3.36;83.46
6514;BME280;3290;47.716;9.070;2023-01-26T12:49:34;97115.03;;;3.41;82.97
6514;BME280;3290;47.716;9.070;2023-01-26T12:52:28;97114.72;;;3.36;83.12
6514;BME280;3290;47.716;9.070;2023-01-26T12:55:00;97111.84;;;3.07;83.82
6514;BME280;3290;47.716;9.070;2023-01-26T12:57:39;97106.94;;;3.36;83.17
6514;BME280;3290;47.716;9.070;2023-01-26T13:00:21;97105.03;;;3.38;83.02
6514;BME280;3290;47.716;9.070;2023-01-26T13:03:31;97097.84;;;3.56;82.38
6514;BME280;3290;47.716;9.070;2023-01-26T13:05:56;97103.72;;;3.42;82.38
6514;BME280;3290;47.716;9.070;2023-01-26T13:11:01;97104.03;;;3.39;82.46
6514;BME280;3290;47.716;9.070;2023-01-26T13:13:34;97101.06;;;3.58;81.84
6514;BME280;3290;47.716;9.070;2023-01-26T13:16:29;97102.22;;;3.47;82.25
6514;BME280;3290;47.716;9.070;2023-01-26T13:18:56;97093.03;;;3.37;81.91
6514;BME280;3290;47.716;9.070;2023-01-26T13:26:44;97086.31;;;3.58;81.56
6514;BME280;3290;47.716;9.070;2023-01-26T13:34:44;97079.00;;;3.69;80.71
6514;BME280;3290;47.716;9.070;2023-01-26T13:39:59;97087.75;;;3.68;79.46
6514;BME280;3290;47.716;9.070;2023-01-26T13:42:35;97087.75;;;3.68;79.52
6514;BME280;3290;47.716;9.070;2023-01-26T13:45:06;97092.25;;;3.74;78.86
6514;BME280;3290;47.716;9.070;2023-01-26T13:47:42;97090.50;;;3.67;78.58
6514;BME280;3290;47.716;9.070;2023-01-26T13:50:32;97087.13;;;3.58;79.55
6514;BME280;3290;47.716;9.070;2023-01-26T13:52:58;97086.81;;;3.61;79.77
6514;BME280;3290;47.716;9.070;2023-01-26T13:55:26;97087.13;;;3.58;80.41
6514;BME280;3290;47.716;9.070;2023-01-26T13:58:12;97087.47;;;3.56;79.57
6514;BME280;3290;47.716;9.070;2023-01-26T14:00:38;97080.06;;;3.45;80.17
6514;BME280;3290;47.716;9.070;2023-01-26T14:03:04;97084.19;;;3.16;81.40
6514;BME280;3290;47.716;9.070;2023-01-26T14:05:30;97091.66;;;3.03;82.15
6514;BME280;3290;47.716;9.070;2023-01-26T14:07:56;97088.59;;;2.99;82.42
6514;BME280;3290;47.716;9.070;2023-01-26T14:10:22;97091.97;;;3.16;82.36
6514;BME280;3290;47.716;9.070;2023-01-26T14:12:50;97092.44;;;3.11;82.76
6514;BME280;3290;47.716;9.070;2023-01-26T14:15:30;97092.91;;;3.22;81.65
6514;BME280;3290;47.716;9.070;2023-01-26T14:17:59;97086.59;;;3.25;82.09
6514;BME280;3290;47.716;9.070;2023-01-26T14:20:25;97089.19;;;3.25;81.90
6514;BME280;3290;47.716;9.070;2023-01-26T14:23:21;97089.38;;;3.16;82.15
6514;BME280;3290;47.716;9.070;2023-01-26T14:25:58;97090.16;;;3.16;81.92
6514;BME280;3290;47.716;9.070;2023-01-26T14:28:27;97096.25;;;3.39;81.67
6514;BME280;3290;47.716;9.070;2023-01-26T14:31:02;97092.72;;;3.40;81.67
6514;BME280;3290;47.716;9.070;2023-01-26T14:33:30;97090.09;;;3.48;80.59
6514;BME280;3290;47.716;9.070;2023-01-26T14:36:00;97090.81;;;3.26;82.21
6514;BME280;3290;47.716;9.070;2023-01-26T14:38:28;97092.44;;;3.65;80.43
6514;BME280;3290;47.716;9.070;2023-01-26T14:40:56;97093.72;;;3.69;80.62
6514;BME280;3290;47.716;9.070;2023-01-26T14:43:23;97093.63;;;3.62;84.05
6514;BME280;3290;47.716;9.070;2023-01-26T14:48:21;97098.09;;;3.68;82.25
6514;BME280;3290;47.716;9.070;2023-01-26T14:50:49;97108.72;;;3.89;80.96
6514;BME280;3290;47.716;9.070;2023-01-26T14:53:20;97108.72;;;3.81;81.73
6514;BME280;3290;47.716;9.070;2023-01-26T14:55:47;97101.81;;;3.74;80.92
6514;BME280;3290;47.716;9.070;2023-01-26T14:58:18;97101.84;;;3.66;80.41
6514;BME280;3290;47.716;9.070;2023-01-26T15:00:47;97104.34;;;3.44;81.67
6514;BME280;3290;47.716;9.070;2023-01-26T15:03:19;97107.03;;;3.58;81.45
6514;BME280;3290;47.716;9.070;2023-01-26T15:05:47;97102.66;;;3.66;80.78
6514;BME280;3290;47.716;9.070;2023-01-26T15:08:22;97096.56;;;3.44;81.91